sensor_id;sensor_type;location;lat;lon;timestamp;P1;durP1;ratioP1;P2;durP2;ratioP2
66523;SDS011;53350;52.210;5.160;2024-03-25T00:00:18;19.77;;;2.60;;
66523;SDS011;53350;52.210;5.160;2024-03-25T00:05:12;21.48;;;2.65;;
66523;SDS011;53350;52.210;5.160;2024-03-25T00:07:40;20.10;;;3.53;;
66523;SDS011;53350;52.210;5.160;2024-03-25T00:10:07;21.55;;;2.85;;
66523;SDS011;53350;52.210;5.160;2024-03-25T00:12:33;17.23;;;2.75;;
66523;SDS011;53350;52.210;5.160;2024-03-25T00:14:59;20.23;;;2.80;;
66523;SDS011;53350;52.210;5.160;2024-03-25T00:17:26;25.67;;;3.92;;
66523;SDS011;53350;52.210;5.160;2024-03-25T00:19:53;21.40;;;2.70;;
66523;SDS011;53350;52.210;5.160;2024-03-25T00:22:19;23.25;;;2.42;;
66523;SDS011;53350;52.210;5.160;2024-03-25T00:24:47;17.08;;;2.08;;
66523;SDS011;53350;52.210;5.160;2024-03-25T00:27:12;21.50;;;2.97;;
66523;SDS011;53350;52.210;5.160;2024-03-25T00:29:39;16.08;;;2.47;;
66523;SDS011;53350;52.210;5.160;2024-03-25T00:32:04;22.02;;;3.03;;
66523;SDS011;53350;52.210;5.160;2024-03-25T00:34:33;20.05;;;3.10;;
66523;SDS011;53350;52.210;5.160;2024-03-25T00:36:59;16.00;;;2.22;;
66523;SDS011;53350;52.210;5.160;2024-03-25T00:39:25;18.00;;;2.70;;
66523;SDS011;53350;52.210;5.160;2024-03-25T00:41:52;19.70;;;2.70;;
66523;SDS011;53350;52.210;5.160;2024-03-25T00:44:18;12.27;;;2.00;;
66523;SDS011;53350;52.210;5.160;2024-03-25T00:46:44;19.80;;;2.80;;
66523;SDS011;53350;52.210;5.160;2024-03-25T00:49:10;19.98;;;3.13;;
66523;SDS011;53350;52.210;5.160;2024-03-25T00:51:37;16.67;;;2.47;;
66523;SDS011;53350;52.210;5.160;2024-03-25T00:54:04;16.88;;;2.00;;
66523;SDS011;53350;52.210;5.160;2024-03-25T00:56:30;15.82;;;2.15;;
66523;SDS011;53350;52.210;5.160;2024-03-25T00:58:56;17.98;;;2.67;;
66523;SDS011;53350;52.210;5.160;2024-03-25T01:01:23;16.65;;;2.40;;
66523;SDS011;53350;52.210;5.160;2024-03-25T01:03:49;19.27;;;2.90;;
66523;SDS011;53350;52.210;5.160;2024-03-25T01:06:15;16.23;;;2.17;;
66523;SDS011;53350;52.210;5.160;2024-03-25T01:08:43;16.58;;;2.30;;
66523;SDS011;53350;52.210;5.160;2024-03-25T01:11:08;10.27;;;2.05;;
66523;SDS011;53350;52.210;5.160;2024-03-25T01:13:35;18.75;;;2.00;;
66523;SDS011;53350;52.210;5.160;2024-03-25T01:16:00;20.52;;;2.25;;
66523;SDS011;53350;52.210;5.160;2024-03-25T01:18:27;12.68;;;1.92;;
66523;SDS011;53350;52.210;5.160;2024-03-25T01:20:52;17.58;;;2.42;;
66523;SDS011;53350;52.210;5.160;2024-03-25T01:23:19;18.42;;;1.83;;
66523;SDS011;53350;52.210;5.160;2024-03-25T01:25:46;13.43;;;2.03;;
66523;SDS011;53350;52.210;5.160;2024-03-25T01:28:13;14.32;;;2.47;;
66523;SDS011;53350;52.210;5.160;2024-03-25T01:30:38;21.67;;;2.63;;
66523;SDS011;53350;52.210;5.160;2024-03-25T01:33:05;17.80;;;2.25;;
66523;SDS011;53350;52.210;5.160;2024-03-25T01:35:30;15.20;;;2.08;;
66523;SDS011;53350;52.210;5.160;2024-03-25T01:37:57;16.95;;;4.05;;
66523;SDS011;53350;52.210;5.160;2024-03-25T01:40:22;9.90;;;1.60;;
66523;SDS011;53350;52.210;5.160;2024-03-25T01:42:56;15.20;;;2.35;;
66523;SDS011;53350;52.210;5.160;2024-03-25T01:45:22;12.45;;;1.60;;
66523;SDS011;53350;52.210;5.160;2024-03-25T01:47:48;12.88;;;2.22;;
66523;SDS011;53350;52.210;5.160;2024-03-25T01:50:14;14.68;;;2.42;;
66523;SDS011;53350;52.210;5.160;2024-03-25T01:52:41;17.45;;;1.90;;
66523;SDS011;53350;52.210;5.160;2024-03-25T01:55:07;18.25;;;2.30;;
66523;SDS011;53350;52.210;5.160;2024-03-25T01:57:38;15.88;;;2.30;;
66523;SDS011;53350;52.210;5.160;2024-03-25T02:00:06;17.17;;;2.17;;
66523;SDS011;53350;52.210;5.160;2024-03-25T02:02:33;13.43;;;1.73;;
66523;SDS011;53350;52.210;5.160;2024-03-25T02:05:00;17.05;;;2.00;;
66523;SDS011;53350;52.210;5.160;2024-03-25T02:07:28;16.52;;;2.60;;
66523;SDS011;53350;52.210;5.160;2024-03-25T02:09:55;13.50;;;2.40;;
66523;SDS011;53350;52.210;5.160;2024-03-25T02:12:22;13.25;;;2.20;;
66523;SDS011;53350;52.210;5.160;2024-03-25T02:14:49;16.52;;;2.38;;
66523;SDS011;53350;52.210;5.160;2024-03-25T02:17:17;14.05;;;2.15;;
66523;SDS011;53350;52.210;5.160;2024-03-25T02:19:43;12.82;;;2.00;;
66523;SDS011;53350;52.210;5.160;2024-03-25T02:22:10;19.92;;;2.38;;
66523;SDS011;53350;52.210;5.160;2024-03-25T02:24:35;15.60;;;2.00;;
66523;SDS011;53350;52.210;5.160;2024-03-25T02:27:04;17.73;;;2.72;;
66523;SDS011;53350;52.210;5.160;2024-03-25T02:29:33;17.38;;;2.70;;
66523;SDS011;53350;52.210;5.160;2024-03-25T02:31:59;15.57;;;1.90;;
66523;SDS011;53350;52.210;5.160;2024-03-25T02:34:25;12.82;;;2.10;;
66523;SDS011;53350;52.210;5.160;2024-03-25T02:36:51;11.45;;;1.77;;
66523;SDS011;53350;52.210;5.160;2024-03-25T02:39:17;16.48;;;2.75;;
66523;SDS011;53350;52.210;5.160;2024-03-25T02:41:45;18.40;;;2.80;;
66523;SDS011;53350;52.210;5.160;2024-03-25T02:44:12;10.63;;;1.67;;
66523;SDS011;53350;52.210;5.160;2024-03-25T02:49:05;18.67;;;2.10;;
66523;SDS011;53350;52.210;5.160;2024-03-25T02:51:32;15.70;;;2.65;;
66523;SDS011;53350;52.210;5.160;2024-03-25T02:53:57;17.48;;;2.00;;
66523;SDS011;53350;52.210;5.160;2024-03-25T02:56:23;14.68;;;2.35;;
66523;SDS011;53350;52.210;5.160;2024-03-25T02:58:49;15.70;;;1.90;;
66523;SDS011;53350;52.210;5.160;2024-03-25T03:01:17;15.27;;;2.10;;
66523;SDS011;53350;52.210;5.160;2024-03-25T03:03:43;18.15;;;2.15;;
66523;SDS011;53350;52.210;5.160;2024-03-25T03:06:09;11.95;;;2.20;;
66523;SDS011;53350;52.210;5.160;2024-03-25T03:08:35;15.73;;;1.85;;
66523;SDS011;53350;52.210;5.160;2024-03-25T03:11:01;10.27;;;2.00;;
66523;SDS011;53350;52.210;5.160;2024-03-25T03:13:27;17.10;;;1.88;;
66523;SDS011;53350;52.210;5.160;2024-03-25T03:15:53;12.55;;;1.70;;
66523;SDS011;53350;52.210;5.160;2024-03-25T03:18:20;19.73;;;2.33;;
66523;SDS011;53350;52.210;5.160;2024-03-25T03:20:46;15.75;;;3.45;;
66523;SDS011;53350;52.210;5.160;2024-03-25T03:23:13;18.70;;;1.70;;
66523;SDS011;53350;52.210;5.160;2024-03-25T03:25:40;18.30;;;2.03;;
66523;SDS011;53350;52.210;5.160;2024-03-25T03:28:05;14.32;;;1.98;;
66523;SDS011;53350;52.210;5.160;2024-03-25T03:30:32;15.60;;;2.38;;
66523;SDS011;53350;52.210;5.160;2024-03-25T03:32:57;18.70;;;2.67;;
66523;SDS011;53350;52.210;5.160;2024-03-25T03:35:25;19.58;;;2.38;;
66523;SDS011;53350;52.210;5.160;2024-03-25T03:37:50;13.82;;;2.28;;
66523;SDS011;53350;52.210;5.160;2024-03-25T03:40:17;22.33;;;2.97;;
66523;SDS011;53350;52.210;5.160;2024-03-25T03:42:43;11.18;;;1.70;;
66523;SDS011;53350;52.210;5.160;2024-03-25T03:45:09;16.48;;;2.22;;
66523;SDS011;53350;52.210;5.160;2024-03-25T03:47:35;13.30;;;1.95;;
66523;SDS011;53350;52.210;5.160;2024-03-25T03:50:01;10.52;;;1.75;;
66523;SDS011;53350;52.210;5.160;2024-03-25T03:52:28;14.55;;;2.20;;
66523;SDS011;53350;52.210;5.160;2024-03-25T03:54:55;14.77;;;2.50;;
66523;SDS011;53350;52.210;5.160;2024-03-25T03:57:20;14.02;;;1.92;;
66523;SDS011;53350;52.210;5.160;2024-03-25T03:59:47;9.23;;;1.55;;
66523;SDS011;53350;52.210;5.160;2024-03-25T04:02:12;14.98;;;2.50;;
66523;SDS011;53350;52.210;5.160;2024-03-25T04:04:38;12.63;;;1.75;;
66523;SDS011;53350;52.210;5.160;2024-03-25T04:07:05;9.25;;;1.60;;
66523;SDS011;53350;52.210;5.160;2024-03-25T04:09:33;11.73;;;2.17;;
66523;SDS011;53350;52.210;5.160;2024-03-25T04:11:58;10.57;;;2.22;;
66523;SDS011;53350;52.210;5.160;2024-03-25T04:14:25;9.77;;;1.63;;
66523;SDS011;53350;52.210;5.160;2024-03-25T04:16:51;14.00;;;1.77;;
66523;SDS011;53350;52.210;5.160;2024-03-25T04:19:18;18.65;;;1.90;;
66523;SDS011;53350;52.210;5.160;2024-03-25T04:21:43;15.38;;;2.40;;
66523;SDS011;53350;52.210;5.160;2024-03-25T04:24:10;16.00;;;2.03;;
66523;SDS011;53350;52.210;5.160;2024-03-25T04:26:37;14.20;;;1.95;;
66523;SDS011;53350;52.210;5.160;2024-03-25T04:29:03;15.23;;;1.80;;
66523;SDS011;53350;52.210;5.160;2024-03-25T04:31:28;11.88;;;1.95;;
66523;SDS011;53350;52.210;5.160;2024-03-25T04:33:55;11.55;;;2.08;;
66523;SDS011;53350;52.210;5.160;2024-03-25T04:36:20;15.75;;;2.60;;
66523;SDS011;53350;52.210;5.160;2024-03-25T04:38:47;16.75;;;1.92;;
66523;SDS011;53350;52.210;5.160;2024-03-25T04:41:12;20.17;;;2.88;;
66523;SDS011;53350;52.210;5.160;2024-03-25T04:43:39;14.88;;;2.58;;
66523;SDS011;53350;52.210;5.160;2024-03-25T04:46:05;9.98;;;1.70;;
66523;SDS011;53350;52.210;5.160;2024-03-25T04:48:30;12.15;;;1.98;;
66523;SDS011;53350;52.210;5.160;2024-03-25T04:50:56;15.50;;;2.63;;
66523;SDS011;53350;52.210;5.160;2024-03-25T04:53:21;18.00;;;2.75;;
66523;SDS011;53350;52.210;5.160;2024-03-25T04:55:47;10.75;;;2.72;;
66523;SDS011;53350;52.210;5.160;2024-03-25T04:58:12;11.75;;;2.65;;
66523;SDS011;53350;52.210;5.160;2024-03-25T05:00:39;14.43;;;2.42;;
66523;SDS011;53350;52.210;5.160;2024-03-25T05:03:05;11.77;;;2.97;;
66523;SDS011;53350;52.210;5.160;2024-03-25T05:05:30;16.17;;;2.33;;
66523;SDS011;53350;52.210;5.160;2024-03-25T05:07:56;12.93;;;2.72;;
66523;SDS011;53350;52.210;5.160;2024-03-25T05:10:21;17.33;;;2.60;;
66523;SDS011;53350;52.210;5.160;2024-03-25T05:12:47;11.63;;;2.70;;
66523;SDS011;53350;52.210;5.160;2024-03-25T05:15:12;13.93;;;2.50;;
66523;SDS011;53350;52.210;5.160;2024-03-25T05:17:39;14.20;;;3.10;;
66523;SDS011;53350;52.210;5.160;2024-03-25T05:20:05;16.42;;;2.63;;
66523;SDS011;53350;52.210;5.160;2024-03-25T05:22:31;16.20;;;2.13;;
66523;SDS011;53350;52.210;5.160;2024-03-25T05:24:57;18.15;;;2.40;;
66523;SDS011;53350;52.210;5.160;2024-03-25T05:27:22;14.82;;;2.65;;
66523;SDS011;53350;52.210;5.160;2024-03-25T05:29:48;20.50;;;3.03;;
66523;SDS011;53350;52.210;5.160;2024-03-25T05:32:14;15.80;;;3.67;;
66523;SDS011;53350;52.210;5.160;2024-03-25T05:34:41;18.55;;;2.97;;
66523;SDS011;53350;52.210;5.160;2024-03-25T05:37:06;17.25;;;4.32;;
66523;SDS011;53350;52.210;5.160;2024-03-25T05:39:32;24.73;;;3.00;;
66523;SDS011;53350;52.210;5.160;2024-03-25T05:41:57;17.20;;;3.08;;
66523;SDS011;53350;52.210;5.160;2024-03-25T05:44:23;16.77;;;2.88;;
66523;SDS011;53350;52.210;5.160;2024-03-25T05:46:48;11.75;;;2.65;;
66523;SDS011;53350;52.210;5.160;2024-03-25T05:49:14;16.15;;;3.10;;
66523;SDS011;53350;52.210;5.160;2024-03-25T05:51:41;18.23;;;2.88;;
66523;SDS011;53350;52.210;5.160;2024-03-25T05:54:06;11.70;;;2.85;;
66523;SDS011;53350;52.210;5.160;2024-03-25T05:56:32;13.95;;;2.80;;
66523;SDS011;53350;52.210;5.160;2024-03-25T05:58:57;12.50;;;2.95;;
66523;SDS011;53350;52.210;5.160;2024-03-25T06:01:23;12.57;;;2.83;;
66523;SDS011;53350;52.210;5.160;2024-03-25T06:03:49;16.52;;;3.30;;
66523;SDS011;53350;52.210;5.160;2024-03-25T06:06:14;13.27;;;2.85;;
66523;SDS011;53350;52.210;5.160;2024-03-25T06:08:41;18.08;;;3.78;;
66523;SDS011;53350;52.210;5.160;2024-03-25T06:11:07;13.85;;;3.17;;
66523;SDS011;53350;52.210;5.160;2024-03-25T06:13:32;18.05;;;3.80;;
66523;SDS011;53350;52.210;5.160;2024-03-25T06:15:58;12.02;;;3.10;;
66523;SDS011;53350;52.210;5.160;2024-03-25T06:18:24;15.45;;;3.72;;
66523;SDS011;53350;52.210;5.160;2024-03-25T06:20:49;18.13;;;5.55;;
66523;SDS011;53350;52.210;5.160;2024-03-25T06:23:21;17.73;;;4.25;;
66523;SDS011;53350;52.210;5.160;2024-03-25T06:25:49;15.80;;;3.38;;
66523;SDS011;53350;52.210;5.160;2024-03-25T06:28:15;22.77;;;3.90;;
66523;SDS011;53350;52.210;5.160;2024-03-25T06:30:40;15.23;;;4.07;;
66523;SDS011;53350;52.210;5.160;2024-03-25T06:33:24;14.50;;;3.38;;
66523;SDS011;53350;52.210;5.160;2024-03-25T06:36:08;20.90;;;3.55;;
66523;SDS011;53350;52.210;5.160;2024-03-25T06:38:33;14.50;;;3.70;;
66523;SDS011;53350;52.210;5.160;2024-03-25T06:41:00;14.93;;;3.25;;
66523;SDS011;53350;52.210;5.160;2024-03-25T06:43:26;13.65;;;3.42;;
66523;SDS011;53350;52.210;5.160;2024-03-25T06:45:51;21.10;;;3.88;;
66523;SDS011;53350;52.210;5.160;2024-03-25T06:48:17;16.75;;;3.80;;
66523;SDS011;53350;52.210;5.160;2024-03-25T06:50:51;20.98;;;4.15;;
66523;SDS011;53350;52.210;5.160;2024-03-25T06:53:17;16.77;;;4.03;;
66523;SDS011;53350;52.210;5.160;2024-03-25T06:55:50;16.92;;;4.40;;
66523;SDS011;53350;52.210;5.160;2024-03-25T06:58:17;13.93;;;3.63;;
66523;SDS011;53350;52.210;5.160;2024-03-25T07:00:44;18.95;;;4.10;;
66523;SDS011;53350;52.210;5.160;2024-03-25T07:03:09;12.40;;;3.58;;
66523;SDS011;53350;52.210;5.160;2024-03-25T07:05:35;20.02;;;4.43;;
66523;SDS011;53350;52.210;5.160;2024-03-25T07:08:00;20.30;;;4.90;;
66523;SDS011;53350;52.210;5.160;2024-03-25T07:10:26;21.90;;;5.50;;
66523;SDS011;53350;52.210;5.160;2024-03-25T07:12:51;19.67;;;5.25;;
66523;SDS011;53350;52.210;5.160;2024-03-25T07:15:18;17.23;;;4.30;;
66523;SDS011;53350;52.210;5.160;2024-03-25T07:17:44;18.80;;;4.15;;
66523;SDS011;53350;52.210;5.160;2024-03-25T07:20:09;18.42;;;4.38;;
66523;SDS011;53350;52.210;5.160;2024-03-25T07:22:35;16.67;;;3.83;;
66523;SDS011;53350;52.210;5.160;2024-03-25T07:25:01;20.45;;;4.10;;
66523;SDS011;53350;52.210;5.160;2024-03-25T07:27:26;19.52;;;4.10;;
66523;SDS011;53350;52.210;5.160;2024-03-25T07:29:52;23.65;;;4.30;;
66523;SDS011;53350;52.210;5.160;2024-03-25T07:32:19;22.58;;;4.78;;
66523;SDS011;53350;52.210;5.160;2024-03-25T07:34:44;21.83;;;4.55;;
66523;SDS011;53350;52.210;5.160;2024-03-25T07:37:10;24.48;;;4.57;;
66523;SDS011;53350;52.210;5.160;2024-03-25T07:39:35;18.25;;;3.42;;
66523;SDS011;53350;52.210;5.160;2024-03-25T07:42:01;20.73;;;4.10;;
66523;SDS011;53350;52.210;5.160;2024-03-25T07:44:26;30.25;;;4.63;;
66523;SDS011;53350;52.210;5.160;2024-03-25T07:46:52;23.90;;;4.78;;
66523;SDS011;53350;52.210;5.160;2024-03-25T07:49:19;20.10;;;4.22;;
66523;SDS011;53350;52.210;5.160;2024-03-25T07:51:44;22.90;;;4.07;;
66523;SDS011;53350;52.210;5.160;2024-03-25T07:54:10;15.55;;;4.47;;
66523;SDS011;53350;52.210;5.160;2024-03-25T07:56:35;23.45;;;4.70;;
66523;SDS011;53350;52.210;5.160;2024-03-25T07:59:01;13.00;;;3.85;;
66523;SDS011;53350;52.210;5.160;2024-03-25T08:01:27;18.45;;;4.22;;
66523;SDS011;53350;52.210;5.160;2024-03-25T08:03:52;22.60;;;4.40;;
66523;SDS011;53350;52.210;5.160;2024-03-25T08:06:19;20.65;;;4.07;;
66523;SDS011;53350;52.210;5.160;2024-03-25T08:08:44;20.38;;;4.18;;
66523;SDS011;53350;52.210;5.160;2024-03-25T08:11:10;24.15;;;3.78;;
66523;SDS011;53350;52.210;5.160;2024-03-25T08:13:35;22.17;;;4.38;;
66523;SDS011;53350;52.210;5.160;2024-03-25T08:16:01;18.77;;;4.28;;
66523;SDS011;53350;52.210;5.160;2024-03-25T08:18:27;15.32;;;3.85;;
66523;SDS011;53350;52.210;5.160;2024-03-25T08:20:53;19.63;;;3.75;;
66523;SDS011;53350;52.210;5.160;2024-03-25T08:23:20;22.45;;;4.22;;
66523;SDS011;53350;52.210;5.160;2024-03-25T08:25:45;20.85;;;4.90;;
66523;SDS011;53350;52.210;5.160;2024-03-25T08:28:11;20.17;;;3.67;;
66523;SDS011;53350;52.210;5.160;2024-03-25T08:30:36;16.30;;;3.78;;
66523;SDS011;53350;52.210;5.160;2024-03-25T08:33:02;15.40;;;3.00;;
66523;SDS011;53350;52.210;5.160;2024-03-25T08:35:28;18.00;;;3.97;;
66523;SDS011;53350;52.210;5.160;2024-03-25T08:37:53;20.65;;;3.65;;
66523;SDS011;53350;52.210;5.160;2024-03-25T08:40:20;23.15;;;3.42;;
66523;SDS011;53350;52.210;5.160;2024-03-25T08:42:46;24.63;;;3.80;;
66523;SDS011;53350;52.210;5.160;2024-03-25T08:45:11;29.40;;;3.55;;
66523;SDS011;53350;52.210;5.160;2024-03-25T08:47:37;19.63;;;3.50;;
66523;SDS011;53350;52.210;5.160;2024-03-25T08:50:03;16.70;;;3.00;;
66523;SDS011;53350;52.210;5.160;2024-03-25T08:52:29;13.82;;;3.25;;
66523;SDS011;53350;52.210;5.160;2024-03-25T08:54:55;16.75;;;2.95;;
66523;SDS011;53350;52.210;5.160;2024-03-25T08:57:21;16.02;;;2.90;;
66523;SDS011;53350;52.210;5.160;2024-03-25T08:59:47;20.15;;;4.47;;
66523;SDS011;53350;52.210;5.160;2024-03-25T09:02:13;22.33;;;2.75;;
66523;SDS011;53350;52.210;5.160;2024-03-25T09:04:38;15.88;;;3.28;;
66523;SDS011;53350;52.210;5.160;2024-03-25T09:07:04;16.88;;;2.35;;
66523;SDS011;53350;52.210;5.160;2024-03-25T09:09:29;17.90;;;2.88;;
66523;SDS011;53350;52.210;5.160;2024-03-25T09:12:13;20.02;;;3.17;;
66523;SDS011;53350;52.210;5.160;2024-03-25T09:14:40;19.85;;;3.28;;
66523;SDS011;53350;52.210;5.160;2024-03-25T09:17:05;21.33;;;3.65;;
66523;SDS011;53350;52.210;5.160;2024-03-25T09:19:31;23.58;;;4.20;;
66523;SDS011;53350;52.210;5.160;2024-03-25T09:21:56;22.23;;;3.65;;
66523;SDS011;53350;52.210;5.160;2024-03-25T09:24:22;17.58;;;2.95;;
66523;SDS011;53350;52.210;5.160;2024-03-25T09:26:49;23.10;;;3.47;;
66523;SDS011;53350;52.210;5.160;2024-03-25T09:29:15;24.67;;;3.83;;
66523;SDS011;53350;52.210;5.160;2024-03-25T09:31:42;22.58;;;3.67;;
66523;SDS011;53350;52.210;5.160;2024-03-25T09:34:07;18.55;;;3.13;;
66523;SDS011;53350;52.210;5.160;2024-03-25T09:36:33;16.73;;;2.55;;
66523;SDS011;53350;52.210;5.160;2024-03-25T09:38:58;25.33;;;3.63;;
66523;SDS011;53350;52.210;5.160;2024-03-25T09:41:24;19.77;;;3.33;;
66523;SDS011;53350;52.210;5.160;2024-03-25T09:43:52;17.75;;;3.20;;
66523;SDS011;53350;52.210;5.160;2024-03-25T09:46:20;20.15;;;2.88;;
66523;SDS011;53350;52.210;5.160;2024-03-25T09:48:49;19.33;;;3.00;;
66523;SDS011;53350;52.210;5.160;2024-03-25T09:51:17;23.48;;;3.45;;
66523;SDS011;53350;52.210;5.160;2024-03-25T09:53:43;16.65;;;2.80;;
66523;SDS011;53350;52.210;5.160;2024-03-25T09:56:09;14.63;;;3.05;;
66523;SDS011;53350;52.210;5.160;2024-03-25T09:58:35;17.77;;;3.20;;
66523;SDS011;53350;52.210;5.160;2024-03-25T10:01:01;21.17;;;3.13;;
66523;SDS011;53350;52.210;5.160;2024-03-25T10:03:27;14.18;;;2.55;;
66523;SDS011;53350;52.210;5.160;2024-03-25T10:05:54;20.42;;;2.90;;
66523;SDS011;53350;52.210;5.160;2024-03-25T10:08:20;19.35;;;3.17;;
66523;SDS011;53350;52.210;5.160;2024-03-25T10:10:45;13.18;;;3.15;;
66523;SDS011;53350;52.210;5.160;2024-03-25T10:13:11;21.52;;;3.03;;
66523;SDS011;53350;52.210;5.160;2024-03-25T10:15:36;22.05;;;3.08;;
66523;SDS011;53350;52.210;5.160;2024-03-25T10:18:02;14.55;;;2.90;;
66523;SDS011;53350;52.210;5.160;2024-03-25T10:20:28;15.77;;;3.10;;
66523;SDS011;53350;52.210;5.160;2024-03-25T10:22:55;22.42;;;3.15;;
66523;SDS011;53350;52.210;5.160;2024-03-25T10:25:21;15.88;;;3.20;;
66523;SDS011;53350;52.210;5.160;2024-03-25T10:27:53;16.42;;;3.30;;
66523;SDS011;53350;52.210;5.160;2024-03-25T10:30:19;13.27;;;2.97;;
66523;SDS011;53350;52.210;5.160;2024-03-25T10:32:45;16.77;;;3.03;;
66523;SDS011;53350;52.210;5.160;2024-03-25T10:35:11;17.40;;;3.13;;
66523;SDS011;53350;52.210;5.160;2024-03-25T10:37:38;18.73;;;4.00;;
66523;SDS011;53350;52.210;5.160;2024-03-25T10:40:06;15.13;;;3.47;;
66523;SDS011;53350;52.210;5.160;2024-03-25T10:42:35;14.23;;;3.05;;
66523;SDS011;53350;52.210;5.160;2024-03-25T10:45:04;13.60;;;3.05;;
66523;SDS011;53350;52.210;5.160;2024-03-25T10:47:33;13.52;;;2.83;;
66523;SDS011;53350;52.210;5.160;2024-03-25T10:49:59;17.25;;;3.88;;
66523;SDS011;53350;52.210;5.160;2024-03-25T10:52:33;18.13;;;3.55;;
66523;SDS011;53350;52.210;5.160;2024-03-25T10:54:59;21.38;;;3.78;;
66523;SDS011;53350;52.210;5.160;2024-03-25T10:57:26;15.43;;;3.22;;
66523;SDS011;53350;52.210;5.160;2024-03-25T10:59:53;17.02;;;3.83;;
66523;SDS011;53350;52.210;5.160;2024-03-25T11:02:22;16.67;;;3.50;;
66523;SDS011;53350;52.210;5.160;2024-03-25T11:04:48;13.20;;;3.42;;
66523;SDS011;53350;52.210;5.160;2024-03-25T11:07:14;14.68;;;3.10;;
66523;SDS011;53350;52.210;5.160;2024-03-25T11:09:41;14.95;;;3.95;;
66523;SDS011;53350;52.210;5.160;2024-03-25T11:12:09;15.43;;;3.67;;
66523;SDS011;53350;52.210;5.160;2024-03-25T11:14:37;15.35;;;3.58;;
66523;SDS011;53350;52.210;5.160;2024-03-25T11:17:02;12.35;;;3.63;;
66523;SDS011;53350;52.210;5.160;2024-03-25T11:19:39;13.30;;;3.83;;
66523;SDS011;53350;52.210;5.160;2024-03-25T11:22:08;13.95;;;4.15;;
66523;SDS011;53350;52.210;5.160;2024-03-25T11:24:35;13.23;;;4.25;;
66523;SDS011;53350;52.210;5.160;2024-03-25T11:27:02;14.05;;;4.20;;
66523;SDS011;53350;52.210;5.160;2024-03-25T11:29:31;10.70;;;3.72;;
66523;SDS011;53350;52.210;5.160;2024-03-25T11:31:58;11.38;;;3.53;;
66523;SDS011;53350;52.210;5.160;2024-03-25T11:34:28;12.35;;;3.90;;
66523;SDS011;53350;52.210;5.160;2024-03-25T11:36:53;12.18;;;3.25;;
66523;SDS011;53350;52.210;5.160;2024-03-25T11:39:19;9.50;;;2.85;;
66523;SDS011;53350;52.210;5.160;2024-03-25T11:41:45;8.68;;;2.83;;
66523;SDS011;53350;52.210;5.160;2024-03-25T11:44:11;12.00;;;2.53;;
66523;SDS011;53350;52.210;5.160;2024-03-25T11:46:37;7.20;;;2.08;;
66523;SDS011;53350;52.210;5.160;2024-03-25T11:49:05;10.55;;;2.90;;
66523;SDS011;53350;52.210;5.160;2024-03-25T11:51:31;12.15;;;3.45;;
66523;SDS011;53350;52.210;5.160;2024-03-25T11:53:58;11.35;;;3.58;;
66523;SDS011;53350;52.210;5.160;2024-03-25T11:56:24;10.98;;;3.20;;
66523;SDS011;53350;52.210;5.160;2024-03-25T11:58:49;10.07;;;3.33;;
66523;SDS011;53350;52.210;5.160;2024-03-25T12:01:15;14.77;;;4.03;;
66523;SDS011;53350;52.210;5.160;2024-03-25T12:03:40;10.70;;;3.65;;
66523;SDS011;53350;52.210;5.160;2024-03-25T12:06:07;9.57;;;3.50;;
66523;SDS011;53350;52.210;5.160;2024-03-25T12:08:33;10.82;;;3.95;;
66523;SDS011;53350;52.210;5.160;2024-03-25T12:10:59;11.65;;;4.00;;
66523;SDS011;53350;52.210;5.160;2024-03-25T12:13:43;10.65;;;3.83;;
66523;SDS011;53350;52.210;5.160;2024-03-25T12:16:09;11.05;;;3.58;;
66523;SDS011;53350;52.210;5.160;2024-03-25T12:18:35;13.85;;;4.00;;
66523;SDS011;53350;52.210;5.160;2024-03-25T12:21:01;11.50;;;3.70;;
66523;SDS011;53350;52.210;5.160;2024-03-25T12:23:29;9.98;;;3.72;;
66523;SDS011;53350;52.210;5.160;2024-03-25T12:25:55;9.88;;;3.65;;
66523;SDS011;53350;52.210;5.160;2024-03-25T12:28:21;11.80;;;4.05;;
66523;SDS011;53350;52.210;5.160;2024-03-25T12:30:50;10.15;;;3.47;;
66523;SDS011;53350;52.210;5.160;2024-03-25T12:33:17;9.73;;;3.28;;
66523;SDS011;53350;52.210;5.160;2024-03-25T12:35:44;9.65;;;3.75;;
66523;SDS011;53350;52.210;5.160;2024-03-25T12:38:20;13.93;;;3.53;;
66523;SDS011;53350;52.210;5.160;2024-03-25T12:40:51;7.65;;;2.70;;
66523;SDS011;53350;52.210;5.160;2024-03-25T12:43:17;9.65;;;3.17;;
66523;SDS011;53350;52.210;5.160;2024-03-25T12:45:42;10.07;;;2.95;;
66523;SDS011;53350;52.210;5.160;2024-03-25T12:48:08;11.02;;;3.17;;
66523;SDS011;53350;52.210;5.160;2024-03-25T12:50:34;8.55;;;3.05;;
66523;SDS011;53350;52.210;5.160;2024-03-25T12:52:59;8.35;;;3.05;;
66523;SDS011;53350;52.210;5.160;2024-03-25T12:55:25;9.13;;;2.70;;
66523;SDS011;53350;52.210;5.160;2024-03-25T12:57:52;10.05;;;3.00;;
66523;SDS011;53350;52.210;5.160;2024-03-25T13:00:18;9.52;;;3.03;;
66523;SDS011;53350;52.210;5.160;2024-03-25T13:02:44;11.43;;;3.17;;
66523;SDS011;53350;52.210;5.160;2024-03-25T13:05:10;10.88;;;3.05;;
66523;SDS011;53350;52.210;5.160;2024-03-25T13:07:35;14.80;;;2.90;;
66523;SDS011;53350;52.210;5.160;2024-03-25T13:10:01;6.07;;;2.38;;
66523;SDS011;53350;52.210;5.160;2024-03-25T13:12:28;8.38;;;2.88;;
66523;SDS011;53350;52.210;5.160;2024-03-25T13:14:55;10.32;;;2.38;;
66523;SDS011;53350;52.210;5.160;2024-03-25T13:17:21;7.18;;;2.20;;
66523;SDS011;53350;52.210;5.160;2024-03-25T13:19:46;10.57;;;2.60;;
66523;SDS011;53350;52.210;5.160;2024-03-25T13:22:12;8.80;;;2.55;;
66523;SDS011;53350;52.210;5.160;2024-03-25T13:24:38;6.03;;;2.42;;
66523;SDS011;53350;52.210;5.160;2024-03-25T13:27:03;9.65;;;2.42;;
66523;SDS011;53350;52.210;5.160;2024-03-25T13:29:29;9.18;;;1.95;;
66523;SDS011;53350;52.210;5.160;2024-03-25T13:31:56;9.65;;;2.00;;
66523;SDS011;53350;52.210;5.160;2024-03-25T13:34:22;6.78;;;2.40;;
66523;SDS011;53350;52.210;5.160;2024-03-25T13:36:49;8.80;;;2.50;;
66523;SDS011;53350;52.210;5.160;2024-03-25T13:39:14;7.05;;;2.25;;
66523;SDS011;53350;52.210;5.160;2024-03-25T13:41:40;10.57;;;2.20;;
66523;SDS011;53350;52.210;5.160;2024-03-25T13:44:05;10.63;;;2.45;;
66523;SDS011;53350;52.210;5.160;2024-03-25T13:46:31;6.63;;;2.22;;
66523;SDS011;53350;52.210;5.160;2024-03-25T13:48:58;7.38;;;2.20;;
66523;SDS011;53350;52.210;5.160;2024-03-25T13:51:24;8.05;;;2.72;;
66523;SDS011;53350;52.210;5.160;2024-03-25T13:53:50;7.60;;;2.10;;
66523;SDS011;53350;52.210;5.160;2024-03-25T13:56:15;8.75;;;2.67;;
66523;SDS011;53350;52.210;5.160;2024-03-25T13:58:41;8.30;;;2.47;;
66523;SDS011;53350;52.210;5.160;2024-03-25T14:01:07;6.55;;;2.50;;
66523;SDS011;53350;52.210;5.160;2024-03-25T14:03:32;10.55;;;2.90;;
66523;SDS011;53350;52.210;5.160;2024-03-25T14:05:59;8.95;;;2.95;;
66523;SDS011;53350;52.210;5.160;2024-03-25T14:08:25;9.20;;;3.03;;
66523;SDS011;53350;52.210;5.160;2024-03-25T14:10:56;8.45;;;2.28;;
66523;SDS011;53350;52.210;5.160;2024-03-25T14:13:23;8.07;;;2.80;;
66523;SDS011;53350;52.210;5.160;2024-03-25T14:15:49;11.98;;;4.20;;
66523;SDS011;53350;52.210;5.160;2024-03-25T14:18:15;9.10;;;2.80;;
66523;SDS011;53350;52.210;5.160;2024-03-25T14:20:41;9.30;;;3.13;;
66523;SDS011;53350;52.210;5.160;2024-03-25T14:23:08;8.80;;;2.95;;
66523;SDS011;53350;52.210;5.160;2024-03-25T14:25:34;10.27;;;2.42;;
66523;SDS011;53350;52.210;5.160;2024-03-25T14:27:59;10.90;;;2.50;;
66523;SDS011;53350;52.210;5.160;2024-03-25T14:30:25;9.60;;;2.80;;
66523;SDS011;53350;52.210;5.160;2024-03-25T14:32:51;10.63;;;2.88;;
66523;SDS011;53350;52.210;5.160;2024-03-25T14:35:17;8.25;;;2.30;;